Terminal Aerodrome Forecast
Issued by NWS Kansas City/Pleasant Hill, MO

Home | Current Version | Previous Version | Text Only | Print | Product List | Glossary On
Versions: 1 2 3 4 5 6 7 8 9 10 11 12 13 14 15 16 17 18 19 20 21 22 23 24
000
FTUS43 KEAX 292320
TAFMCI
TAF
KMCI 292320Z 3000/3024 07014G22KT 5SM -RA BR OVC025
     FM300400 09019G28KT 5SM -SHRA BR OVC015
     FM300600 09017G24KT 5SM BR OVC007
     FM301000 10012KT 5SM BR VCTS OVC007CB
     FM301800 20008KT P6SM OVC015=

USA.gov is the U.S. government's official web portal to all federal, state and local government web resources and services.